Aeroporto :
LOGIN :

Iscrizione | Disclaimer

   EN    FR    IT 

 










Sommario :    VFR   VFR Marginale   IFR   IFR Intensivo   IFR Molto Intensivo
Visibilità : 
Base nubi : 
>= 8 km
>= 3000ft
5 / 8 km
1000 / 3000 ft
1500m / 5 km
500 / 1000 ft
800 / 1500m
200 / 500 ft
< 800m
< 200 ft
Simboli :   Temporali  Nebbia  Neve Forte  Precipitazioni Forti  Vento > 20 kt
SIGMETs :   Varie  Temporali  Ghiacco  Turbolenza  Onda orograficha  Ceneri Vulcaniche







- Altitudine del aeroporto : 659 ft
- Codice IATA : LYN
- Carte del aeroporto


LFLY - Lyon Bron

ULTIMO METAR :
  • 230700Z AUTO VRB02KT 9000 OVC004 14/14 Q1019 TEMPO 1000 BCFG BECMG SCT030

METARs OBSOLETI :
  • 230630Z AUTO VRB02KT 9999 BKN006 14/13 Q1019 TEMPO 1000 BCFG BECMG SCT030
  • 230600Z AUTO VRB02KT 8000 FEW005 14/13 Q1018 TEMPO 1000 BCFG
  • 230530Z AUTO VRB03KT 4400 0650 R34/P2400 BCFG SCT041 14/13 Q1018 TEMPO 1000 BCFG
  • 230500Z AUTO VRB03KT 9000 FEW002 BKN043 14/13 Q1018 TEMPO 1000 BCFG
  • 230430Z AUTO 20002KT 9999 FEW047 14/13 Q1018 TEMPO 1000 BCFG

TAF TAF LFLY
Valido dal 23 a 06 ore il 24 a 06 ore UTC


230500Z 2306/2406 VRB04KT 9999 FEW010 SCT050
PROB40
TEMPO 2306/2308 1000 BCFG
BECMG 2308/2310 36006KT 9999 SCT030
BECMG 2318/2320 VRB02KT CAVOK
ATIS : +33 4 72 15 87 96
Nessun NOTAM noto per questo aeroporto.



MetMap, La meteo Aeronautica in un colpo d'occhio ! - Copyright ORBIFLY Dicembre 2007 - Disclaimer

ORBIFLY MET'MAP TEAM :

Programmazione e sviluppo : Alexandra Zaïnal
Concezione e sviluppo : Baudouin d'Aumeries
Co-Programmazione e sviluppo : Marc-Olivier Méhu
Supporto tecnico e logistico : Manuel Goepfert
Aiuto per la traduzione : Arnaldo La Scala

Contatto : metmap@orbifly.com




FONTI E CREDITI :

   NOAA